Time;durP1;ratioP1;P1;durP2;ratioP2;P2;SDS_P1;SDS_P2;PMS_P1;PMS_P2;Temp;Humidity;BMP_temperature;BMP_pressure;BME280_temperature;BME280_humidity;BME280_pressure;Samples;Min_cycle;Max_cycle;Signal;HPM_P1;HPM_P2
2021/12/07 00:02:23;;;;;;;1.50;1.40;;;2.00;99.90;;;;;;5042828;28;20203;-62
2021/12/07 00:04:50;;;;;;;1.97;1.67;;;2.00;99.90;;;;;;5043063;28;20270;-62
2021/12/07 00:07:17;;;;;;;1.83;1.57;;;1.90;99.90;;;;;;5043346;28;20753;-62
2021/12/07 00:09:49;;;;;;;1.40;1.20;;;1.90;99.90;;;;;;5042127;28;20220;-62
2021/12/07 00:12:16;;;;;;;1.70;1.10;;;1.90;99.90;;;;;;5043134;28;20238;-62
2021/12/07 00:14:45;;;;;;;1.23;1.13;;;1.90;99.90;;;;;;5042394;28;20242;-62
2021/12/07 00:17:12;;;;;;;1.50;1.10;;;1.80;99.90;;;;;;5043252;28;20739;-63
2021/12/07 00:19:39;;;;;;;1.70;1.13;;;1.80;99.90;;;;;;5042994;28;20281;-63
2021/12/07 00:22:08;;;;;;;2.47;1.17;;;1.80;99.90;;;;;;5104136;28;20207;-62
2021/12/07 00:24:35;;;;;;;1.63;1.37;;;1.90;99.90;;;;;;5124772;28;20713;-63
2021/12/07 00:27:02;;;;;;;1.10;1.00;;;1.80;99.90;;;;;;5126073;28;20254;-62
2021/12/07 00:29:30;;;;;;;1.30;1.17;;;1.80;99.90;;;;;;5125290;28;20286;-63
2021/12/07 00:32:16;;;;;;;0.87;0.87;;;1.80;99.90;;;;;;5125848;28;20199;-63
2021/12/07 00:34:58;;;;;;;0.80;0.80;;;1.80;99.90;;;;;;5125462;28;20571;-62
2021/12/07 00:37:26;;;;;;;1.30;0.97;;;1.80;99.90;;;;;;5126061;28;20206;-63
2021/12/07 00:39:53;;;;;;;1.30;1.00;;;1.70;99.90;;;;;;5124768;28;20204;-62
2021/12/07 00:42:20;;;;;;;1.20;1.10;;;1.70;99.90;;;;;;5125360;28;20214;-62
2021/12/07 00:44:47;;;;;;;1.30;1.00;;;1.60;99.90;;;;;;5124580;28;20295;-62
2021/12/07 00:47:16;;;;;;;4.20;1.40;;;1.60;99.90;;;;;;5125639;28;20258;-62
2021/12/07 00:49:44;;;;;;;2.60;1.10;;;1.60;99.90;;;;;;5125406;28;20238;-63
2021/12/07 00:52:11;;;;;;;5.63;1.73;;;1.60;99.90;;;;;;5125396;28;20210;-62
2021/12/07 00:54:38;;;;;;;13.13;3.70;;;1.60;99.90;;;;;;5124218;28;20275;-62
2021/12/07 00:57:06;;;;;;;2.97;1.67;;;1.50;99.90;;;;;;5125572;28;20283;-62
2021/12/07 00:59:33;;;;;;;5.00;2.20;;;1.50;99.90;;;;;;5124924;28;20235;-62
2021/12/07 01:02:00;;;;;;;1.50;1.20;;;1.50;99.90;;;;;;5125353;28;20235;-62
2021/12/07 01:04:29;;;;;;;1.57;1.27;;;1.50;99.90;;;;;;5125047;28;20295;-62
2021/12/07 01:07:04;;;;;;;1.37;1.20;;;1.50;99.90;;;;;;5125430;28;20718;-63
2021/12/07 01:09:36;;;;;;;2.37;1.33;;;1.40;99.90;;;;;;5124368;28;20211;-63
2021/12/07 01:25:54;;;;;;;1.00;0.73;;;1.50;99.90;;;;;;5125249;28;20202;-63
2021/12/07 01:28:26;;;;;;;1.13;1.03;;;1.50;99.90;;;;;;5125289;28;20222;-62
2021/12/07 01:30:57;;;;;;;1.03;0.90;;;1.50;99.90;;;;;;5125714;28;20192;-62
2021/12/07 01:33:56;;;;;;;0.80;0.73;;;1.50;99.90;;;;;;5124601;28;20231;-62
2021/12/07 01:36:45;;;;;;;5.57;1.93;;;1.50;99.90;;;;;;5125079;28;20195;-63
2021/12/07 01:45:01;;;;;;;1.10;1.00;;;1.50;99.90;;;;;;5124491;28;20202;-63
2021/12/07 01:47:46;;;;;;;1.53;1.43;;;1.50;99.90;;;;;;5125135;28;20203;-63
2021/12/07 01:57:45;;;;;;;1.27;1.17;;;1.40;99.90;;;;;;5041481;28;20210;-62
2021/12/07 02:01:31;;;;;;;1.43;0.60;;;1.50;99.90;;;;;;5041913;28;20274;-62
2021/12/07 02:03:58;;;;;;;0.90;0.70;;;1.50;99.90;;;;;;5041226;28;20277;-63
2021/12/07 02:06:25;;;;;;;0.50;0.50;;;1.50;99.90;;;;;;5041842;28;20294;-63
2021/12/07 02:08:53;;;;;;;0.60;0.60;;;1.60;99.90;;;;;;5040856;28;20514;-63
2021/12/07 02:11:20;;;;;;;1.40;0.50;;;1.60;99.90;;;;;;5041722;28;20333;-62
2021/12/07 02:14:15;;;;;;;0.50;0.50;;;1.70;99.90;;;;;;5041118;28;20245;-62
2021/12/07 02:16:42;;;;;;;0.70;0.70;;;1.60;99.90;;;;;;5041717;28;20234;-63
2021/12/07 02:19:09;;;;;;;1.40;1.30;;;1.60;99.90;;;;;;5041327;28;20258;-63
2021/12/07 02:21:37;;;;;;;1.30;1.20;;;1.60;99.90;;;;;;5041632;28;20306;-63
2021/12/07 02:24:04;;;;;;;0.90;0.90;;;1.60;99.90;;;;;;5043608;28;20440;-63
2021/12/07 02:26:31;;;;;;;0.80;0.80;;;1.70;99.90;;;;;;5045306;28;20306;-63
2021/12/07 02:28:58;;;;;;;0.50;0.50;;;1.70;99.90;;;;;;5088590;28;20302;-63
2021/12/07 02:31:26;;;;;;;0.63;0.63;;;1.80;99.90;;;;;;5128441;28;20264;-62
2021/12/07 02:33:54;;;;;;;0.60;0.60;;;1.80;99.90;;;;;;5127945;28;20290;-62
2021/12/07 02:36:20;;;;;;;0.30;0.30;;;1.80;99.90;;;;;;5128157;28;20203;-63
2021/12/07 02:38:50;;;;;;;0.60;0.60;;;1.80;99.90;;;;;;5127159;28;20200;-62
2021/12/07 02:41:17;;;;;;;0.60;0.60;;;1.90;99.90;;;;;;5128169;28;20251;-62
2021/12/07 02:43:44;;;;;;;0.60;0.60;;;1.80;99.90;;;;;;5127286;28;20200;-62
2021/12/07 02:46:11;;;;;;;0.50;0.50;;;1.90;99.90;;;;;;5128176;28;20215;-62
2021/12/07 02:48:38;;;;;;;0.50;0.50;;;1.90;99.90;;;;;;5127641;28;20226;-62
2021/12/07 02:51:06;;;;;;;0.60;0.60;;;1.90;99.90;;;;;;5127859;28;20615;-63
2021/12/07 02:53:35;;;;;;;0.50;0.50;;;2.00;99.90;;;;;;5126776;28;20271;-62
2021/12/07 02:56:06;;;;;;;0.93;0.80;;;2.00;99.90;;;;;;5127509;28;20589;-62
2021/12/07 02:58:34;;;;;;;0.37;0.37;;;2.00;99.90;;;;;;5126525;28;20669;-62
2021/12/07 03:01:08;;;;;;;0.30;0.30;;;1.90;99.90;;;;;;5127863;28;20290;-62
2021/12/07 03:03:42;;;;;;;0.40;0.40;;;2.00;99.90;;;;;;5127102;28;20210;-62
2021/12/07 03:06:17;;;;;;;0.30;0.30;;;1.90;99.90;;;;;;5127606;28;20183;-62
2021/12/07 03:27:51;;;;;;;0.70;0.70;;;1.90;99.90;;;;;;5082189;28;20218;-62
2021/12/07 03:30:19;;;;;;;0.80;0.80;;;1.90;99.90;;;;;;5126344;28;20286;-62
2021/12/07 03:32:46;;;;;;;1.00;0.90;;;1.90;99.90;;;;;;5126899;28;20242;-62
2021/12/07 03:35:13;;;;;;;1.10;1.00;;;2.00;99.90;;;;;;5126820;28;20295;-62
2021/12/07 03:37:40;;;;;;;1.00;1.00;;;2.00;99.90;;;;;;5127220;28;20203;-63
2021/12/07 03:40:08;;;;;;;0.90;0.90;;;1.90;99.90;;;;;;5126244;28;20267;-63
2021/12/07 03:42:35;;;;;;;0.40;0.40;;;1.90;99.90;;;;;;5126838;28;20235;-62
2021/12/07 03:45:06;;;;;;;0.43;0.43;;;1.90;99.90;;;;;;5126091;28;20302;-63
2021/12/07 03:47:33;;;;;;;0.27;0.27;;;1.90;99.90;;;;;;5127164;28;20215;-63
2021/12/07 03:50:00;;;;;;;0.30;0.30;;;1.90;99.90;;;;;;5126615;28;20262;-63
2021/12/07 03:52:27;;;;;;;0.20;0.20;;;1.90;99.90;;;;;;5126358;28;20231;-62
2021/12/07 03:54:54;;;;;;;0.77;0.40;;;1.90;99.90;;;;;;5125580;28;20211;-62
2021/12/07 03:57:21;;;;;;;0.50;0.50;;;2.00;99.90;;;;;;5126594;28;20195;-63
2021/12/07 03:59:48;;;;;;;1.47;0.50;;;2.00;99.90;;;;;;5125812;28;20231;-62
2021/12/07 04:02:16;;;;;;;0.40;0.40;;;2.00;99.90;;;;;;5126507;28;20228;-62
2021/12/07 04:04:43;;;;;;;0.50;0.50;;;2.00;99.90;;;;;;5126260;28;20203;-63
2021/12/07 04:07:10;;;;;;;0.30;0.30;;;2.00;99.90;;;;;;5126751;28;20287;-62
2021/12/07 04:09:37;;;;;;;1.33;0.40;;;1.90;99.90;;;;;;5125470;28;20664;-62
2021/12/07 04:12:04;;;;;;;0.47;0.47;;;1.90;99.90;;;;;;5126367;28;20203;-62
2021/12/07 04:14:31;;;;;;;0.60;0.60;;;1.90;99.90;;;;;;5125223;28;20266;-62
2021/12/07 04:16:58;;;;;;;0.50;0.50;;;1.90;99.90;;;;;;5126258;28;20238;-62
2021/12/07 04:19:26;;;;;;;1.17;0.90;;;1.90;99.90;;;;;;5126134;28;20264;-63
2021/12/07 04:21:53;;;;;;;1.90;0.60;;;1.90;99.90;;;;;;5126147;28;20238;-62
2021/12/07 04:24:20;;;;;;;0.87;0.60;;;1.90;99.90;;;;;;5124603;28;20287;-63
2021/12/07 04:26:47;;;;;;;0.57;0.57;;;1.90;99.90;;;;;;5126286;28;20206;-63
2021/12/07 04:29:14;;;;;;;0.60;0.60;;;1.90;99.90;;;;;;5124958;28;20226;-63
2021/12/07 04:31:41;;;;;;;0.57;0.57;;;2.00;99.90;;;;;;5126099;28;20230;-62
2021/12/07 04:34:08;;;;;;;0.60;0.60;;;2.00;99.90;;;;;;5125317;28;20207;-62
2021/12/07 04:36:36;;;;;;;0.70;0.70;;;2.00;99.90;;;;;;5125965;28;20271;-62
2021/12/07 04:39:03;;;;;;;0.80;0.80;;;2.00;99.90;;;;;;5125248;28;20215;-62
2021/12/07 04:41:33;;;;;;;0.80;0.70;;;2.00;99.90;;;;;;5126147;28;20224;-62
2021/12/07 04:44:03;;;;;;;0.60;0.60;;;2.00;99.90;;;;;;5124910;28;20203;-62
2021/12/07 04:46:35;;;;;;;0.80;0.80;;;2.00;99.90;;;;;;5125423;28;20210;-62
2021/12/07 04:57:44;;;;;;;1.37;0.73;;;2.00;99.90;;;;;;5143698;28;20174;-63
2021/12/07 05:00:14;;;;;;;0.80;0.77;;;2.00;99.90;;;;;;5142560;28;20268;-63
2021/12/07 05:02:44;;;;;;;0.57;0.53;;;1.90;99.90;;;;;;5143323;28;20230;-63
2021/12/07 05:05:13;;;;;;;0.97;0.60;;;2.00;99.90;;;;;;5142826;28;20229;-63
2021/12/07 05:07:47;;;;;;;0.80;0.80;;;2.00;99.90;;;;;;5143298;28;20262;-62
2021/12/07 05:10:25;;;;;;;0.60;0.60;;;2.00;99.90;;;;;;5142327;28;20290;-62
2021/12/07 05:18:38;;;;;;;1.00;0.90;;;1.90;99.90;;;;;;5142731;28;20217;-62
2021/12/07 05:23:57;;;;;;;0.50;0.50;;;1.90;99.90;;;;;;5139109;28;20206;-63
2021/12/07 05:37:39;;;;;;;0.70;0.70;;;1.80;99.90;;;;;;5139810;28;20256;-62
2021/12/07 05:37:50;;;;;;;0.53;0.53;;;1.80;99.90;;;;;;5140349;28;20195;-62
2021/12/07 05:40:20;;;;;;;0.63;0.60;;;1.80;99.90;;;;;;5138892;28;20202;-62
2021/12/07 05:42:48;;;;;;;0.67;0.67;;;1.80;99.90;;;;;;5138439;28;20219;-63
2021/12/07 05:45:18;;;;;;;0.87;0.77;;;1.80;99.90;;;;;;5139372;28;20227;-63
2021/12/07 05:47:45;;;;;;;1.10;1.00;;;1.80;99.90;;;;;;5138639;28;20215;-63
2021/12/07 05:50:15;;;;;;;1.13;1.00;;;1.80;99.90;;;;;;5140648;28;20263;-63
2021/12/07 05:52:41;;;;;;;0.97;0.97;;;1.90;99.90;;;;;;5137758;28;20270;-62
2021/12/07 05:55:09;;;;;;;1.17;1.07;;;1.90;99.90;;;;;;5138895;28;20295;-62
2021/12/07 05:57:38;;;;;;;1.90;1.00;;;2.00;99.90;;;;;;5139879;28;20286;-62
2021/12/07 06:00:08;;;;;;;1.10;1.10;;;2.00;99.90;;;;;;5139220;28;20199;-63
2021/12/07 06:02:35;;;;;;;1.27;0.83;;;2.00;99.90;;;;;;5132450;28;20227;-63
2021/12/07 06:05:02;;;;;;;0.80;0.80;;;2.00;99.90;;;;;;5127642;28;20200;-62
2021/12/07 06:07:29;;;;;;;1.23;1.10;;;2.00;99.90;;;;;;5128226;28;20196;-64
2021/12/07 06:09:56;;;;;;;1.10;1.00;;;2.10;99.90;;;;;;5127216;28;20286;-63
2021/12/07 06:12:22;;;;;;;0.80;0.80;;;2.10;99.90;;;;;;5128223;28;20227;-63
2021/12/07 06:14:55;;;;;;;1.07;0.93;;;2.10;99.90;;;;;;5127091;28;20267;-63
2021/12/07 06:17:22;;;;;;;2.10;1.00;;;2.10;99.90;;;;;;5128203;28;20192;-64
2021/12/07 06:19:49;;;;;;;2.23;1.20;;;2.10;99.90;;;;;;5127398;28;20231;-63
2021/12/07 06:22:16;;;;;;;1.57;1.30;;;2.00;99.90;;;;;;5127808;28;20204;-63
2021/12/07 06:24:43;;;;;;;1.57;1.00;;;2.00;99.90;;;;;;5126720;28;20206;-63
2021/12/07 06:27:09;;;;;;;1.00;0.93;;;2.10;99.90;;;;;;5128229;28;20226;-63
2021/12/07 06:29:36;;;;;;;1.83;1.10;;;2.10;99.90;;;;;;5127322;28;20283;-63
2021/12/07 06:32:05;;;;;;;0.70;0.70;;;2.10;99.90;;;;;;5127050;28;20242;-63
2021/12/07 06:34:32;;;;;;;2.30;1.13;;;2.20;99.90;;;;;;5126979;28;20291;-63
2021/12/07 06:37:00;;;;;;;1.90;1.30;;;2.20;99.90;;;;;;5127807;28;20287;-64
2021/12/07 06:39:27;;;;;;;1.10;1.10;;;2.20;99.90;;;;;;5126748;28;20238;-63
2021/12/07 06:41:53;;;;;;;1.57;1.47;;;2.20;99.90;;;;;;5127192;28;20227;-62
2021/12/07 06:44:20;;;;;;;2.93;2.10;;;2.20;99.90;;;;;;5126514;28;20199;-63
2021/12/07 06:46:48;;;;;;;2.17;1.93;;;2.20;99.90;;;;;;5126784;28;20705;-63
2021/12/07 06:49:17;;;;;;;3.50;1.73;;;2.20;99.90;;;;;;5126926;28;20245;-63
2021/12/07 06:51:45;;;;;;;6.03;2.77;;;2.20;99.90;;;;;;5127038;28;20319;-63
2021/12/07 06:54:12;;;;;;;2.40;2.20;;;2.20;99.90;;;;;;5125749;28;20872;-63
2021/12/07 06:56:38;;;;;;;3.50;3.10;;;2.30;99.90;;;;;;5127426;28;20191;-63
2021/12/07 06:59:06;;;;;;;14.63;7.50;;;2.30;99.90;;;;;;5126707;28;20259;-63
2021/12/07 07:01:34;;;;;;;11.43;5.83;;;2.30;99.90;;;;;;5127289;28;20224;-63
2021/12/07 07:04:01;;;;;;;24.47;10.13;;;2.30;99.90;;;;;;5126794;28;20290;-63
2021/12/07 07:06:30;;;;;;;8.67;4.90;;;2.20;99.90;;;;;;5127111;28;20211;-63
2021/12/07 07:08:57;;;;;;;5.27;3.03;;;2.20;99.90;;;;;;5126388;28;20196;-63
2021/12/07 07:11:24;;;;;;;10.37;3.30;;;2.30;99.90;;;;;;5127060;28;20283;-63
2021/12/07 07:13:50;;;;;;;4.43;2.50;;;2.30;99.90;;;;;;5123852;28;20545;-62
2021/12/07 07:16:18;;;;;;;2.67;1.80;;;2.30;99.90;;;;;;5126053;28;20202;-62
2021/12/07 07:18:44;;;;;;;2.13;1.93;;;2.30;99.90;;;;;;5126098;28;20283;-63
2021/12/07 07:21:11;;;;;;;4.17;2.13;;;2.30;99.90;;;;;;5123727;28;20220;-63
2021/12/07 07:23:40;;;;;;;3.33;2.20;;;2.30;99.90;;;;;;5125348;28;20279;-63
2021/12/07 07:26:08;;;;;;;2.03;1.90;;;2.30;99.90;;;;;;5125848;28;20288;-63
2021/12/07 07:28:36;;;;;;;2.33;1.80;;;2.40;99.90;;;;;;5125459;28;20219;-63
2021/12/07 07:31:05;;;;;;;1.43;1.27;;;2.40;99.90;;;;;;5126473;28;20306;-63
2021/12/07 07:33:32;;;;;;;3.43;2.03;;;2.40;99.90;;;;;;5126226;28;20234;-63
2021/12/07 07:35:59;;;;;;;3.13;1.83;;;2.40;99.90;;;;;;5126560;28;20232;-63
2021/12/07 07:38:26;;;;;;;2.97;1.57;;;2.50;99.90;;;;;;5126321;28;20235;-61
2021/12/07 07:40:54;;;;;;;2.43;1.60;;;2.50;99.90;;;;;;5125446;28;20283;-67
2021/12/07 07:43:22;;;;;;;2.80;1.87;;;2.60;99.90;;;;;;5126331;28;20211;-63
2021/12/07 07:45:50;;;;;;;2.33;1.90;;;2.60;99.90;;;;;;5126221;28;20239;-67
2021/12/07 07:48:17;;;;;;;5.30;3.00;;;2.60;99.90;;;;;;5126496;28;20211;-62
2021/12/07 07:50:45;;;;;;;4.67;2.40;;;2.60;99.90;;;;;;5125516;28;20323;-63
2021/12/07 07:53:12;;;;;;;4.63;2.17;;;2.60;99.90;;;;;;5107648;28;20318;-63
2021/12/07 07:55:42;;;;;;;2.83;2.13;;;2.60;99.90;;;;;;5124993;28;20623;-62
2021/12/07 07:58:12;;;;;;;2.53;1.67;;;2.60;99.90;;;;;;5126208;28;20286;-62
2021/12/07 08:00:40;;;;;;;2.60;1.57;;;2.60;99.90;;;;;;5125099;28;20694;-62
2021/12/07 08:03:07;;;;;;;2.23;1.73;;;2.60;99.90;;;;;;5125916;28;20238;-62
2021/12/07 08:05:35;;;;;;;2.03;1.40;;;2.60;99.90;;;;;;5125852;28;20291;-62
2021/12/07 08:08:02;;;;;;;2.87;1.67;;;2.60;99.90;;;;;;5125218;28;20605;-63
2021/12/07 08:10:29;;;;;;;1.60;1.47;;;2.50;99.90;;;;;;5122033;28;20223;-62
2021/12/07 08:12:56;;;;;;;1.70;1.53;;;2.60;99.90;;;;;;5125585;28;20203;-62
2021/12/07 08:15:26;;;;;;;4.17;1.50;;;2.60;99.90;;;;;;5124336;28;20203;-62
2021/12/07 08:17:53;;;;;;;1.67;1.10;;;2.60;99.90;;;;;;5125594;28;20192;-62
2021/12/07 08:20:21;;;;;;;4.67;1.70;;;2.70;99.90;;;;;;5124899;28;20630;-62
2021/12/07 08:22:48;;;;;;;3.23;1.73;;;2.70;99.90;;;;;;5122430;28;20196;-62
2021/12/07 08:25:15;;;;;;;3.63;1.20;;;2.70;99.90;;;;;;5123526;28;20196;-62
2021/12/07 08:27:45;;;;;;;2.00;1.77;;;2.70;99.90;;;;;;5125499;28;20200;-62
2021/12/07 08:30:15;;;;;;;1.20;1.10;;;2.70;99.90;;;;;;5122240;28;20470;-62
2021/12/07 08:32:45;;;;;;;2.93;1.50;;;2.80;99.90;;;;;;5125117;28;20264;-62
2021/12/07 08:35:13;;;;;;;1.80;1.47;;;2.80;99.90;;;;;;5122698;28;20192;-62
2021/12/07 08:37:39;;;;;;;2.33;1.40;;;2.80;99.90;;;;;;5125147;28;20192;-63
2021/12/07 08:40:09;;;;;;;7.03;1.10;;;2.90;99.90;;;;;;5124179;28;20224;-62
2021/12/07 08:42:37;;;;;;;2.40;1.47;;;2.90;99.90;;;;;;5125172;28;20184;-62
2021/12/07 08:45:05;;;;;;;1.87;1.20;;;2.90;99.90;;;;;;5123964;28;20650;-62
2021/12/07 08:47:32;;;;;;;1.23;1.13;;;2.90;99.90;;;;;;5124998;28;20721;-62
2021/12/07 08:50:01;;;;;;;1.90;1.30;;;2.90;99.90;;;;;;5124847;28;20322;-62
2021/12/07 08:52:27;;;;;;;1.67;1.20;;;2.90;99.90;;;;;;5124755;28;20282;-62
2021/12/07 09:00:23;;;;;;;2.50;1.40;;;3.00;99.90;;;;;;5123291;28;20194;-62
2021/12/07 09:02:50;;;;;;;1.30;1.10;;;3.00;99.90;;;;;;5124571;28;20271;-62
2021/12/07 09:05:18;;;;;;;7.50;2.40;;;3.10;99.90;;;;;;5124595;28;20200;-60
2021/12/07 09:07:46;;;;;;;1.40;1.23;;;3.10;99.90;;;;;;5128595;28;20259;-60
2021/12/07 09:10:13;;;;;;;3.23;1.30;;;3.10;99.90;;;;;;5129073;28;20239;-60
2021/12/07 09:12:40;;;;;;;2.57;1.23;;;3.10;99.90;;;;;;5133232;28;20270;-60
2021/12/07 09:15:08;;;;;;;4.17;1.40;;;3.20;99.90;;;;;;5133793;28;20267;-60
2021/12/07 09:17:35;;;;;;;1.50;1.40;;;3.30;99.90;;;;;;5132676;28;20633;-60
2021/12/07 09:20:03;;;;;;;3.23;1.30;;;3.30;99.90;;;;;;5133072;28;20198;-60
2021/12/07 09:22:32;;;;;;;4.73;1.23;;;3.30;99.90;;;;;;5134262;28;20586;-60
2021/12/07 09:25:04;;;;;;;1.97;1.40;;;3.30;99.90;;;;;;5132253;28;20211;-60
2021/12/07 09:27:31;;;;;;;2.50;1.10;;;3.40;99.90;;;;;;5132519;28;20180;-60
2021/12/07 09:29:57;;;;;;;5.17;0.90;;;3.30;99.90;;;;;;5132915;28;20230;-59
2021/12/07 09:32:25;;;;;;;1.03;1.00;;;3.40;99.90;;;;;;5133715;28;20246;-60
2021/12/07 09:34:51;;;;;;;2.77;1.40;;;3.40;99.90;;;;;;5131707;28;20224;-59
2021/12/07 09:37:21;;;;;;;1.60;1.10;;;3.40;99.90;;;;;;5134671;27;20714;-59
2021/12/07 09:39:49;;;;;;;1.00;0.90;;;3.50;99.90;;;;;;5137327;27;20653;-59
2021/12/07 09:42:16;;;;;;;1.33;1.03;;;3.50;99.90;;;;;;5136463;27;20230;-59
2021/12/07 09:44:43;;;;;;;3.00;1.23;;;3.60;99.90;;;;;;5135874;27;20202;-59
2021/12/07 09:47:10;;;;;;;1.43;0.93;;;3.60;99.90;;;;;;5138110;27;20215;-60
2021/12/07 09:49:37;;;;;;;1.60;1.40;;;3.50;99.90;;;;;;5136011;27;20219;-60
2021/12/07 09:52:04;;;;;;;3.13;1.23;;;3.40;99.90;;;;;;5136133;27;20235;-60
2021/12/07 09:54:31;;;;;;;3.60;1.67;;;3.40;99.90;;;;;;5136486;27;20282;-60
2021/12/07 09:56:59;;;;;;;1.60;1.40;;;3.30;99.90;;;;;;5136596;27;20291;-60
2021/12/07 09:59:26;;;;;;;1.90;1.80;;;3.30;99.90;;;;;;5135044;27;20266;-59
2021/12/07 10:01:53;;;;;;;3.97;2.83;;;3.30;99.90;;;;;;5131864;27;20191;-60
2021/12/07 10:04:24;;;;;;;1.10;1.07;;;3.30;99.90;;;;;;5125406;28;20287;-59
2021/12/07 10:06:50;;;;;;;2.00;1.10;;;3.40;99.90;;;;;;5126040;28;20202;-59
2021/12/07 10:09:17;;;;;;;1.57;1.13;;;3.30;99.90;;;;;;5125857;28;20282;-60
2021/12/07 10:11:44;;;;;;;1.00;0.90;;;3.40;99.90;;;;;;5126364;28;20261;-60
2021/12/07 10:14:15;;;;;;;3.63;1.07;;;3.50;99.90;;;;;;5124756;28;20231;-60
2021/12/07 10:16:45;;;;;;;2.97;1.20;;;3.50;99.90;;;;;;5127889;28;20211;-61
2021/12/07 10:19:15;;;;;;;3.23;1.20;;;3.60;99.90;;;;;;5125462;28;20191;-60
2021/12/07 10:21:43;;;;;;;4.97;0.93;;;3.70;99.90;;;;;;5127720;28;20211;-60
2021/12/07 10:24:17;;;;;;;1.13;1.00;;;3.70;99.90;;;;;;5123132;28;20631;-59
2021/12/07 10:26:44;;;;;;;1.07;0.83;;;3.70;99.90;;;;;;5127387;28;20219;-60
2021/12/07 10:29:16;;;;;;;3.73;1.03;;;3.70;99.90;;;;;;5126934;28;20196;-59
2021/12/07 10:31:47;;;;;;;0.87;0.87;;;3.70;99.90;;;;;;5127548;28;20299;-60
2021/12/07 10:34:16;;;;;;;0.80;0.80;;;3.70;99.90;;;;;;5126859;28;20614;-60
2021/12/07 10:36:45;;;;;;;1.30;0.87;;;3.70;99.90;;;;;;5126396;28;20273;-62
2021/12/07 10:39:15;;;;;;;2.77;0.87;;;3.70;99.90;;;;;;5126759;28;20672;-62
2021/12/07 10:41:44;;;;;;;2.07;1.20;;;3.70;99.90;;;;;;5127229;28;20176;-62
2021/12/07 10:44:13;;;;;;;3.10;1.20;;;3.80;99.90;;;;;;5126541;28;20207;-62
2021/12/07 10:46:44;;;;;;;3.07;1.73;;;3.80;99.90;;;;;;5127660;28;20224;-63
2021/12/07 10:49:17;;;;;;;1.47;1.20;;;3.80;99.90;;;;;;5127143;28;20731;-62
2021/12/07 10:51:57;;;;;;;1.87;1.20;;;3.80;99.90;;;;;;5126782;28;20266;-62
2021/12/07 10:54:24;;;;;;;1.87;1.23;;;3.90;99.90;;;;;;5125657;28;20295;-62
2021/12/07 10:56:51;;;;;;;4.30;1.33;;;3.80;99.90;;;;;;5127373;28;20223;-62
2021/12/07 10:59:18;;;;;;;1.00;0.90;;;3.90;99.90;;;;;;5126562;28;20630;-62
2021/12/07 11:01:49;;;;;;;1.17;1.03;;;3.90;99.90;;;;;;5126965;28;20202;-62
2021/12/07 11:04:25;;;;;;;1.23;1.07;;;3.90;99.90;;;;;;5126730;28;20238;-62
2021/12/07 11:07:07;;;;;;;3.17;1.27;;;3.90;99.90;;;;;;5127272;28;20195;-62
2021/12/07 11:09:50;;;;;;;1.10;1.00;;;4.00;99.90;;;;;;5125573;28;20206;-62
2021/12/07 11:12:19;;;;;;;0.90;0.90;;;4.00;99.90;;;;;;5126862;28;20207;-62
2021/12/07 11:14:52;;;;;;;1.27;1.13;;;4.00;99.90;;;;;;5126107;28;20295;-62
2021/12/07 11:17:23;;;;;;;1.10;1.00;;;4.10;99.90;;;;;;5127056;28;20187;-63
2021/12/07 11:19:51;;;;;;;1.10;0.87;;;4.10;99.90;;;;;;5126705;28;20696;-62
2021/12/07 11:22:20;;;;;;;2.03;1.30;;;4.10;99.90;;;;;;5126164;28;20195;-62
2021/12/07 11:24:48;;;;;;;2.97;2.20;;;4.10;99.90;;;;;;5125593;28;20236;-62
2021/12/07 11:30:07;;;;;;;1.13;1.03;;;4.10;99.90;;;;;;5126205;28;20240;-62
2021/12/07 11:32:36;;;;;;;1.70;1.40;;;4.10;99.90;;;;;;5126764;28;20242;-62
2021/12/07 11:35:14;;;;;;;1.30;1.00;;;4.10;99.90;;;;;;5126222;28;20358;-62
2021/12/07 11:37:42;;;;;;;1.63;1.13;;;4.00;99.90;;;;;;5126269;28;20188;-62
2021/12/07 11:40:11;;;;;;;1.20;0.80;;;4.00;99.90;;;;;;5125821;28;20204;-62
2021/12/07 11:42:42;;;;;;;2.10;1.00;;;3.90;99.90;;;;;;5126553;28;20749;-62
2021/12/07 11:45:12;;;;;;;1.80;1.13;;;3.80;99.90;;;;;;5125568;28;20238;-62
2021/12/07 11:47:43;;;;;;;1.53;1.17;;;3.70;99.90;;;;;;5126791;28;20188;-62
2021/12/07 11:50:18;;;;;;;9.50;2.93;;;3.60;99.90;;;;;;5126054;28;20257;-61
2021/12/07 11:52:45;;;;;;;6.83;2.07;;;3.60;99.90;;;;;;5126485;28;20243;-61
2021/12/07 11:55:12;;;;;;;2.93;1.20;;;3.60;99.90;;;;;;5124595;28;20290;-62
2021/12/07 11:57:40;;;;;;;1.30;1.20;;;3.50;99.90;;;;;;5126582;28;20203;-62
2021/12/07 12:00:12;;;;;;;4.70;2.10;;;3.50;99.90;;;;;;5124703;28;20348;-62
2021/12/07 12:02:40;;;;;;;4.03;2.70;;;3.50;99.90;;;;;;5124272;28;20244;-62
2021/12/07 12:05:09;;;;;;;2.03;1.50;;;3.50;99.90;;;;;;5123535;28;20267;-62
2021/12/07 12:07:40;;;;;;;4.73;1.27;;;3.60;99.90;;;;;;5123242;28;20199;-62
2021/12/07 12:10:09;;;;;;;2.67;1.27;;;3.60;99.90;;;;;;5125481;28;20210;-61
2021/12/07 12:13:02;;;;;;;1.10;1.00;;;3.70;99.90;;;;;;5125441;28;20211;-62
2021/12/07 12:15:46;;;;;;;3.20;1.20;;;3.70;99.90;;;;;;5121667;28;20192;-62
2021/12/07 12:18:23;;;;;;;0.93;0.63;;;3.70;99.90;;;;;;5120710;28;20194;-62
2021/12/07 12:21:02;;;;;;;1.93;0.97;;;3.70;99.90;;;;;;5126239;28;20190;-62
2021/12/07 12:23:42;;;;;;;1.03;0.80;;;3.70;99.90;;;;;;5124800;28;20210;-62
2021/12/07 12:26:12;;;;;;;0.97;0.80;;;3.70;99.90;;;;;;5124905;28;20227;-62
2021/12/07 12:28:42;;;;;;;0.70;0.70;;;3.70;99.90;;;;;;5124661;28;20255;-62
2021/12/07 12:31:09;;;;;;;0.93;0.80;;;3.70;99.90;;;;;;5125230;28;20283;-62
2021/12/07 12:33:50;;;;;;;0.80;0.70;;;3.70;99.90;;;;;;5124263;28;20208;-62
2021/12/07 12:36:17;;;;;;;0.80;0.80;;;3.70;99.90;;;;;;5125335;28;20210;-61
2021/12/07 12:38:48;;;;;;;0.60;0.60;;;3.70;99.90;;;;;;5124844;28;20709;-61
2021/12/07 12:41:16;;;;;;;1.27;1.00;;;3.60;99.90;;;;;;5123573;28;20258;-61
2021/12/07 12:43:47;;;;;;;2.13;1.80;;;3.60;99.90;;;;;;5124452;28;20637;-60
2021/12/07 12:46:19;;;;;;;1.27;1.10;;;3.60;99.90;;;;;;5130191;27;20203;-60
2021/12/07 12:48:50;;;;;;;1.10;1.00;;;3.60;99.90;;;;;;5132591;27;20190;-61
2021/12/07 12:51:18;;;;;;;1.23;1.17;;;3.50;99.90;;;;;;5130420;28;20255;-60
2021/12/07 12:53:47;;;;;;;2.30;0.90;;;3.50;99.90;;;;;;5132226;28;20238;-61
2021/12/07 12:56:16;;;;;;;1.00;1.00;;;3.50;99.90;;;;;;5125211;28;20228;-60
2021/12/07 12:58:46;;;;;;;0.80;0.70;;;3.50;99.90;;;;;;5131063;28;20238;-60
2021/12/07 13:01:25;;;;;;;3.20;0.73;;;3.50;99.90;;;;;;5122375;28;20259;-61
2021/12/07 13:04:07;;;;;;;1.93;0.57;;;3.40;99.90;;;;;;5132379;28;20225;-61
2021/12/07 13:07:02;;;;;;;2.00;0.93;;;3.40;99.90;;;;;;5130082;28;20207;-61
2021/12/07 13:09:41;;;;;;;1.13;0.70;;;3.40;99.90;;;;;;5130197;28;20223;-63
2021/12/07 13:12:11;;;;;;;0.73;0.73;;;3.40;99.90;;;;;;5133821;27;20218;-62
2021/12/07 13:14:51;;;;;;;0.80;0.80;;;3.40;99.90;;;;;;5134216;27;20191;-60
2021/12/07 13:17:23;;;;;;;3.70;0.70;;;3.40;99.90;;;;;;5131035;27;20199;-62
2021/12/07 13:20:12;;;;;;;1.00;0.90;;;3.40;99.90;;;;;;5125795;28;20546;-62
2021/12/07 13:22:43;;;;;;;0.77;0.77;;;3.40;99.90;;;;;;5126525;28;20187;-62
2021/12/07 13:25:12;;;;;;;0.93;0.90;;;3.30;99.90;;;;;;5126168;28;20204;-63
2021/12/07 13:27:56;;;;;;;0.93;0.80;;;3.30;99.90;;;;;;5128640;28;20311;-62
2021/12/07 13:30:23;;;;;;;1.40;0.90;;;3.30;99.90;;;;;;5127460;28;20200;-61
2021/12/07 13:33:04;;;;;;;3.50;1.37;;;3.30;99.90;;;;;;5129069;28;20319;-60
2021/12/07 13:35:33;;;;;;;1.83;1.23;;;3.30;99.90;;;;;;5128103;28;20196;-60
2021/12/07 13:38:15;;;;;;;10.67;3.67;;;3.30;99.90;;;;;;5128448;28;20219;-60
2021/12/07 13:40:42;;;;;;;8.07;2.70;;;3.30;99.90;;;;;;5128177;28;20282;-60
2021/12/07 13:43:09;;;;;;;3.20;2.00;;;3.30;99.90;;;;;;5128751;28;20210;-60
2021/12/07 13:45:36;;;;;;;8.50;2.40;;;3.30;99.90;;;;;;5127263;28;20227;-60
2021/12/07 13:48:04;;;;;;;5.10;2.37;;;3.30;99.90;;;;;;5127410;28;20283;-60
2021/12/07 13:50:33;;;;;;;2.20;1.50;;;3.30;99.90;;;;;;5127253;28;20227;-60
2021/12/07 13:53:01;;;;;;;1.63;0.80;;;3.30;99.90;;;;;;5126518;28;20257;-60
2021/12/07 13:55:30;;;;;;;1.70;1.33;;;3.30;99.90;;;;;;5125474;28;20223;-60
2021/12/07 13:57:59;;;;;;;1.30;1.17;;;3.30;99.90;;;;;;5126773;28;20208;-59
2021/12/07 14:00:29;;;;;;;0.90;0.90;;;3.30;99.90;;;;;;5126317;28;20306;-59
2021/12/07 14:03:00;;;;;;;0.83;0.83;;;3.30;99.90;;;;;;5125955;28;20192;-59
2021/12/07 14:05:28;;;;;;;2.53;1.03;;;3.20;99.90;;;;;;5126832;28;20286;-60
2021/12/07 14:07:59;;;;;;;0.70;0.70;;;3.20;99.90;;;;;;5127791;28;20287;-60
2021/12/07 14:10:28;;;;;;;2.97;0.90;;;3.30;99.90;;;;;;5126589;28;20243;-59
2021/12/07 14:12:57;;;;;;;1.03;0.93;;;3.40;99.90;;;;;;5128452;28;20292;-60
2021/12/07 14:15:26;;;;;;;3.03;2.23;;;3.40;99.90;;;;;;5127022;28;20224;-59
2021/12/07 14:17:55;;;;;;;2.30;1.33;;;3.40;99.90;;;;;;5127742;28;20200;-60
2021/12/07 14:20:36;;;;;;;2.60;1.17;;;3.40;99.90;;;;;;5124441;28;20222;-60
2021/12/07 14:23:20;;;;;;;2.07;1.33;;;3.30;99.90;;;;;;5124654;28;20215;-61
2021/12/07 14:25:50;;;;;;;7.67;2.00;;;3.30;99.90;;;;;;5127217;28;20286;-62
2021/12/07 14:28:28;;;;;;;5.67;1.83;;;3.30;99.90;;;;;;5128063;28;20276;-62
2021/12/07 14:31:00;;;;;;;3.37;1.60;;;3.30;99.90;;;;;;5127356;28;20684;-62
2021/12/07 14:33:27;;;;;;;2.80;1.90;;;3.20;99.90;;;;;;5126864;28;20728;-62